Tuskahoma, Oklahoma
Current Conditions -  °F | °C
As of 5:53 PM on Wednesday 22 Oct 2014 (Local Time) from KMLC Reporting Station
Clear Clear  
Wind Chill: 74°   Ceiling: Unl
Heat Index: 74°   Visibility: 10mi
Dew Point: 57°   Wind: 5mph
Humidity: 55%   Direction: 140°SE
Pressure: 30.1"   Gusts: NA
Location:  34.62°N, 95.28°W
Report Text: KMLC 222253Z AUTO 14004KT 10SM CLR 23/14 A3010 RMK AO2 SLP186 T02330139
Loading
Personal Weather Stations






























Interactive Weather Map New forecast layout! Learn more

10-Day Weather Forecast

Advertisements
Track Severe Weather on mobile